Time;durP1;ratioP1;P1;durP2;ratioP2;P2;SDS_P1;SDS_P2;PMS_P1;PMS_P2;Temp;Humidity;BMP_temperature;BMP_pressure;BME280_temperature;BME280_humidity;BME280_pressure;Samples;Min_cycle;Max_cycle;Signal;HPM_P1;HPM_P2
2023/10/27 00:00:07;;;;;;;0.10;0.10;;;10.70;99.90;;;;;;5070474;28;20200;-78
2023/10/27 00:02:38;;;;;;;0.10;0.10;;;10.70;99.90;;;;;;5069004;28;20335;-78
2023/10/27 00:05:07;;;;;;;0.00;0.00;;;10.70;99.90;;;;;;5064351;28;20176;-78
2023/10/27 00:07:32;;;;;;;0.10;0.10;;;10.90;99.90;;;;;;5066313;28;20192;-78
2023/10/27 00:09:58;;;;;;;0.10;0.10;;;10.90;99.90;;;;;;5070222;28;20197;-78
2023/10/27 00:12:23;;;;;;;0.00;0.00;;;10.90;99.90;;;;;;5066713;28;20193;-78
2023/10/27 00:14:49;;;;;;;0.10;0.10;;;10.90;99.90;;;;;;5063804;28;20682;-77
2023/10/27 00:17:14;;;;;;;0.10;0.10;;;10.90;99.90;;;;;;5070936;28;20189;-78
2023/10/27 00:19:40;;;;;;;0.03;0.03;;;11.00;99.90;;;;;;5060859;28;20695;-78
2023/10/27 00:22:05;;;;;;;0.10;0.10;;;11.00;99.90;;;;;;5064021;28;20656;-78
2023/10/27 00:24:31;;;;;;;0.10;0.10;;;11.00;99.90;;;;;;5068817;28;20193;-78
2023/10/27 00:26:56;;;;;;;0.10;0.10;;;11.00;99.90;;;;;;5070091;28;20604;-78
2023/10/27 00:29:22;;;;;;;0.00;0.00;;;11.00;99.90;;;;;;5065712;28;20205;-78
2023/10/27 00:31:47;;;;;;;0.10;0.10;;;11.00;99.90;;;;;;5067798;28;20180;-78
2023/10/27 00:34:13;;;;;;;0.10;0.10;;;11.00;99.90;;;;;;5066437;28;20271;-78
2023/10/27 00:36:38;;;;;;;0.10;0.10;;;11.00;99.90;;;;;;5068507;28;20247;-78
2023/10/27 00:39:04;;;;;;;0.10;0.10;;;11.00;99.90;;;;;;5069762;28;20215;-78
2023/10/27 00:41:30;;;;;;;0.10;0.10;;;11.00;99.90;;;;;;5067924;28;20201;-78
2023/10/27 00:43:56;;;;;;;0.10;0.10;;;11.00;99.90;;;;;;5069346;28;20174;-78
2023/10/27 00:46:22;;;;;;;0.10;0.10;;;11.00;99.90;;;;;;5068606;28;20679;-78
2023/10/27 00:48:48;;;;;;;0.10;0.10;;;11.00;99.90;;;;;;5068347;28;20215;-78
2023/10/27 00:51:13;;;;;;;0.10;0.10;;;11.00;99.90;;;;;;5065420;28;20636;-78
2023/10/27 00:53:39;;;;;;;0.10;0.10;;;11.00;99.90;;;;;;5065634;28;20189;-78
2023/10/27 00:56:05;;;;;;;0.10;0.10;;;11.10;99.90;;;;;;5069597;28;20180;-78
2023/10/27 00:58:31;;;;;;;0.10;0.10;;;11.00;99.90;;;;;;5063847;28;20191;-78
2023/10/27 01:01:00;;;;;;;0.10;0.10;;;11.10;99.90;;;;;;5068106;28;20200;-78
2023/10/27 01:03:25;;;;;;;0.07;0.07;;;11.10;99.90;;;;;;5064970;28;20271;-78
2023/10/27 01:05:51;;;;;;;0.10;0.10;;;11.10;99.90;;;;;;5063515;28;20177;-78
2023/10/27 01:08:16;;;;;;;0.10;0.10;;;11.20;99.90;;;;;;5059160;28;20173;-78
2023/10/27 01:10:42;;;;;;;0.10;0.10;;;11.30;99.90;;;;;;5068213;28;20311;-78
2023/10/27 01:13:07;;;;;;;0.00;0.00;;;11.30;99.90;;;;;;5067726;28;20291;-78
2023/10/27 01:15:33;;;;;;;0.10;0.10;;;11.30;99.90;;;;;;5068822;28;20200;-78
2023/10/27 01:17:58;;;;;;;0.10;0.10;;;11.30;99.90;;;;;;5068728;28;20177;-78
2023/10/27 01:20:24;;;;;;;0.00;0.00;;;11.10;99.90;;;;;;5061463;28;20703;-78
2023/10/27 01:22:50;;;;;;;0.10;0.10;;;11.00;99.90;;;;;;5058878;28;20254;-78
2023/10/27 01:25:16;;;;;;;0.03;0.03;;;11.00;99.90;;;;;;5069180;28;20272;-78
2023/10/27 01:27:42;;;;;;;0.10;0.10;;;10.90;99.90;;;;;;5068211;28;20268;-78
2023/10/27 01:30:09;;;;;;;0.00;0.00;;;10.80;99.90;;;;;;5067017;28;20734;-78
2023/10/27 01:32:36;;;;;;;0.10;0.10;;;10.90;99.90;;;;;;5061818;28;20181;-78
2023/10/27 01:35:02;;;;;;;0.00;0.00;;;10.90;99.90;;;;;;5069076;28;20285;-78
2023/10/27 01:37:27;;;;;;;0.10;0.10;;;10.90;99.90;;;;;;5064418;28;20216;-78
2023/10/27 01:39:53;;;;;;;0.10;0.10;;;11.00;99.90;;;;;;5068416;28;20699;-78
2023/10/27 01:42:19;;;;;;;0.10;0.10;;;11.00;99.90;;;;;;5064035;28;20201;-78
2023/10/27 01:44:44;;;;;;;0.10;0.10;;;11.00;99.90;;;;;;5068556;28;20177;-78
2023/10/27 01:47:10;;;;;;;0.00;0.00;;;11.00;99.90;;;;;;5060601;28;20188;-78
2023/10/27 01:49:35;;;;;;;0.10;0.10;;;11.00;99.90;;;;;;5067472;28;20300;-78
2023/10/27 01:52:01;;;;;;;0.00;0.00;;;10.90;99.90;;;;;;5059243;28;20173;-78
2023/10/27 01:54:26;;;;;;;0.10;0.10;;;11.00;99.90;;;;;;5068276;28;20188;-78
2023/10/27 01:56:52;;;;;;;0.10;0.10;;;11.00;99.90;;;;;;5067847;28;20184;-78
2023/10/27 01:59:17;;;;;;;0.00;0.00;;;11.00;99.90;;;;;;5064350;28;20707;-78
2023/10/27 02:01:43;;;;;;;0.03;0.03;;;11.00;99.90;;;;;;5067351;28;20269;-78
2023/10/27 02:04:08;;;;;;;0.10;0.10;;;11.00;99.90;;;;;;5069007;28;20185;-78
2023/10/27 02:06:33;;;;;;;0.10;0.10;;;11.10;99.90;;;;;;5061042;28;20180;-78
2023/10/27 02:08:59;;;;;;;0.00;0.00;;;11.10;99.90;;;;;;5063269;28;20187;-78
2023/10/27 02:11:25;;;;;;;0.00;0.00;;;11.10;99.90;;;;;;5064411;28;20197;-78
2023/10/27 02:13:50;;;;;;;0.07;0.07;;;11.10;99.90;;;;;;5069546;28;20195;-78
2023/10/27 02:16:16;;;;;;;0.10;0.10;;;11.10;99.90;;;;;;5062881;28;20226;-78
2023/10/27 02:18:41;;;;;;;0.10;0.10;;;11.10;99.90;;;;;;5064966;28;20242;-78
2023/10/27 02:21:07;;;;;;;0.00;0.00;;;11.10;99.90;;;;;;5071562;28;20208;-78
2023/10/27 02:23:33;;;;;;;0.00;0.00;;;11.10;99.90;;;;;;5068934;28;20286;-78
2023/10/27 02:25:58;;;;;;;0.10;0.10;;;11.10;99.90;;;;;;5068442;28;20660;-78
2023/10/27 02:28:24;;;;;;;0.10;0.10;;;11.00;99.90;;;;;;5072174;28;20215;-78
2023/10/27 02:30:49;;;;;;;0.10;0.10;;;11.00;99.90;;;;;;5064986;28;20209;-78
2023/10/27 02:33:15;;;;;;;0.10;0.10;;;10.70;99.90;;;;;;5072333;28;20185;-78
2023/10/27 02:35:40;;;;;;;0.00;0.00;;;10.60;99.90;;;;;;5064028;28;20208;-78
2023/10/27 02:38:06;;;;;;;0.10;0.10;;;10.40;99.90;;;;;;5067351;28;20259;-78
2023/10/27 02:40:34;;;;;;;0.10;0.10;;;10.40;99.90;;;;;;5070094;28;20262;-78
2023/10/27 02:42:59;;;;;;;0.10;0.10;;;10.40;99.90;;;;;;5070304;28;20193;-78
2023/10/27 02:45:25;;;;;;;0.10;0.10;;;10.30;99.90;;;;;;5072015;28;20193;-78
2023/10/27 02:47:50;;;;;;;0.10;0.10;;;10.30;99.90;;;;;;5064269;28;20181;-78
2023/10/27 02:50:16;;;;;;;0.00;0.00;;;10.20;99.90;;;;;;5071275;28;20777;-78
2023/10/27 02:52:41;;;;;;;0.10;0.10;;;10.30;99.90;;;;;;5066203;28;20199;-77
2023/10/27 02:55:07;;;;;;;0.07;0.07;;;10.40;99.90;;;;;;5068299;28;20184;-78
2023/10/27 02:57:33;;;;;;;0.10;0.10;;;10.70;99.90;;;;;;5071680;28;20648;-79
2023/10/27 02:59:59;;;;;;;0.10;0.10;;;10.80;99.90;;;;;;5070374;28;20201;-79
2023/10/27 03:02:25;;;;;;;0.03;0.03;;;10.80;99.90;;;;;;5071759;28;20205;-79
2023/10/27 03:04:51;;;;;;;0.00;0.00;;;10.90;99.90;;;;;;5070733;28;20844;-79
2023/10/27 03:07:17;;;;;;;0.10;0.10;;;11.00;99.90;;;;;;5066194;28;20597;-79
2023/10/27 03:09:43;;;;;;;0.10;0.10;;;11.00;99.90;;;;;;5068547;28;20209;-79
2023/10/27 03:12:09;;;;;;;0.00;0.00;;;11.10;99.90;;;;;;5070481;28;20250;-79
2023/10/27 03:14:34;;;;;;;0.10;0.10;;;11.10;99.90;;;;;;5070145;28;20185;-79
2023/10/27 03:17:00;;;;;;;0.10;0.10;;;11.20;99.90;;;;;;5068783;28;20189;-78
2023/10/27 03:19:25;;;;;;;0.00;0.00;;;11.30;99.90;;;;;;5070651;28;20342;-79
2023/10/27 03:21:51;;;;;;;0.10;0.10;;;11.20;99.90;;;;;;5064134;28;20193;-78
2023/10/27 03:24:16;;;;;;;0.10;0.10;;;11.30;99.90;;;;;;5065527;28;20648;-79
2023/10/27 03:26:42;;;;;;;0.10;0.10;;;11.40;99.90;;;;;;5068885;28;20191;-79
2023/10/27 03:29:07;;;;;;;0.10;0.10;;;11.40;99.90;;;;;;5070210;28;20181;-79
2023/10/27 03:31:34;;;;;;;0.10;0.10;;;11.40;99.90;;;;;;5065030;28;20279;-78
2023/10/27 03:34:00;;;;;;;0.10;0.10;;;11.50;99.90;;;;;;5063044;28;20192;-79
2023/10/27 03:36:25;;;;;;;0.10;0.10;;;11.40;99.90;;;;;;5070847;28;20234;-79
2023/10/27 03:38:51;;;;;;;0.10;0.10;;;11.50;99.90;;;;;;5061689;28;20196;-79
2023/10/27 03:41:17;;;;;;;0.10;0.10;;;11.60;99.90;;;;;;5086162;28;20217;-79
2023/10/27 03:43:42;;;;;;;0.10;0.10;;;11.60;99.90;;;;;;5069545;28;20263;-79
2023/10/27 03:46:08;;;;;;;0.10;0.10;;;11.50;99.90;;;;;;5070607;28;20585;-78
2023/10/27 03:48:35;;;;;;;0.00;0.00;;;11.60;99.90;;;;;;5069784;28;20195;-79
2023/10/27 03:51:05;;;;;;;0.10;0.10;;;11.50;99.90;;;;;;5070164;28;20692;-79
2023/10/27 03:53:31;;;;;;;0.10;0.10;;;11.40;99.90;;;;;;5070538;28;20193;-79
2023/10/27 03:55:56;;;;;;;0.10;0.10;;;11.30;99.90;;;;;;5068261;28;20597;-79
2023/10/27 03:58:22;;;;;;;0.10;0.10;;;11.30;99.90;;;;;;5066267;28;20307;-79
2023/10/27 04:00:47;;;;;;;0.10;0.10;;;11.40;99.90;;;;;;5069657;28;20737;-78
2023/10/27 04:03:13;;;;;;;0.10;0.10;;;11.50;99.90;;;;;;5061470;28;20267;-79
2023/10/27 04:05:38;;;;;;;0.10;0.10;;;11.50;99.90;;;;;;5069811;28;20267;-78
2023/10/27 04:08:04;;;;;;;0.10;0.10;;;11.60;99.90;;;;;;5070047;28;20192;-78
2023/10/27 04:10:32;;;;;;;0.10;0.10;;;11.60;99.90;;;;;;5068160;28;20220;-78
2023/10/27 04:12:58;;;;;;;0.00;0.00;;;11.60;99.90;;;;;;5065019;28;20668;-79
2023/10/27 04:15:24;;;;;;;0.00;0.00;;;11.50;99.90;;;;;;5061665;28;20193;-79
2023/10/27 04:17:50;;;;;;;0.00;0.00;;;11.40;99.90;;;;;;5064801;28;20724;-79
2023/10/27 04:20:15;;;;;;;0.10;0.10;;;11.10;99.90;;;;;;5069927;28;20296;-78
2023/10/27 04:22:41;;;;;;;0.10;0.10;;;11.00;99.90;;;;;;5066110;28;20200;-79
2023/10/27 04:25:07;;;;;;;0.10;0.10;;;10.90;99.90;;;;;;5063348;28;20188;-79
2023/10/27 04:27:32;;;;;;;0.10;0.10;;;11.00;99.90;;;;;;5067470;28;20216;-78
2023/10/27 04:29:58;;;;;;;0.10;0.10;;;10.90;99.90;;;;;;5068426;28;20208;-78
2023/10/27 04:32:26;;;;;;;0.10;0.10;;;10.90;99.90;;;;;;5067823;28;20189;-78
2023/10/27 04:34:51;;;;;;;0.10;0.10;;;10.90;99.90;;;;;;5069349;28;20272;-78
2023/10/27 04:37:18;;;;;;;0.10;0.10;;;11.00;99.90;;;;;;5059943;28;20641;-78
2023/10/27 04:39:43;;;;;;;0.10;0.10;;;10.80;99.90;;;;;;5064722;28;20580;-78
2023/10/27 04:42:09;;;;;;;0.10;0.10;;;10.80;99.90;;;;;;5067824;28;20200;-78
2023/10/27 04:44:34;;;;;;;0.10;0.10;;;10.80;99.90;;;;;;5066897;28;20181;-78
2023/10/27 04:47:00;;;;;;;0.10;0.10;;;10.70;99.90;;;;;;5068855;28;20185;-79
2023/10/27 04:49:26;;;;;;;0.00;0.00;;;10.70;99.90;;;;;;5066175;28;20211;-78
2023/10/27 04:51:52;;;;;;;0.10;0.10;;;10.60;99.90;;;;;;5063205;28;20279;-78
2023/10/27 04:54:17;;;;;;;0.10;0.10;;;10.60;99.90;;;;;;5067772;28;20272;-78
2023/10/27 04:56:43;;;;;;;0.10;0.10;;;10.70;99.90;;;;;;5069899;28;20242;-78
2023/10/27 04:59:09;;;;;;;0.10;0.10;;;10.60;99.90;;;;;;5066754;28;20196;-78
2023/10/27 05:01:35;;;;;;;0.10;0.10;;;10.60;99.90;;;;;;5067574;28;20204;-79
2023/10/27 05:04:01;;;;;;;0.10;0.10;;;10.70;99.90;;;;;;5068908;28;20309;-79
2023/10/27 05:06:26;;;;;;;0.10;0.10;;;10.60;99.90;;;;;;5066896;28;20554;-78
2023/10/27 05:08:52;;;;;;;0.10;0.10;;;10.70;99.90;;;;;;5066492;28;20181;-78
2023/10/27 05:11:18;;;;;;;0.00;0.00;;;10.70;99.90;;;;;;5063005;28;20597;-79
2023/10/27 05:13:44;;;;;;;0.10;0.10;;;10.70;99.90;;;;;;5066024;28;20185;-79
2023/10/27 05:16:09;;;;;;;0.10;0.10;;;10.60;99.90;;;;;;5067116;28;20177;-79
2023/10/27 05:18:35;;;;;;;0.10;0.10;;;10.50;99.90;;;;;;5060765;28;20204;-85
2023/10/27 05:21:00;;;;;;;0.10;0.10;;;10.50;99.90;;;;;;5065647;28;20285;-79
2023/10/27 05:23:26;;;;;;;0.10;0.10;;;10.50;99.90;;;;;;5059968;28;20185;-78
2023/10/27 05:25:52;;;;;;;0.10;0.10;;;10.40;99.90;;;;;;5065350;28;20184;-78
2023/10/27 05:28:19;;;;;;;0.03;0.03;;;10.40;99.90;;;;;;5067246;28;20226;-79
2023/10/27 05:30:46;;;;;;;0.10;0.10;;;10.40;99.90;;;;;;5068144;28;20282;-79
2023/10/27 05:33:12;;;;;;;0.00;0.00;;;10.50;99.90;;;;;;5067954;28;20173;-79
2023/10/27 05:35:38;;;;;;;0.07;0.07;;;10.60;99.90;;;;;;5066036;28;20306;-79
2023/10/27 05:38:04;;;;;;;0.10;0.10;;;10.70;99.90;;;;;;5069067;28;20202;-79
2023/10/27 05:40:31;;;;;;;0.00;0.00;;;10.90;99.90;;;;;;5067732;28;20203;-78
2023/10/27 05:42:57;;;;;;;0.10;0.10;;;11.00;99.90;;;;;;5062268;28;20196;-78
2023/10/27 05:45:23;;;;;;;0.10;0.10;;;11.20;99.90;;;;;;5067089;28;20192;-78
2023/10/27 05:47:48;;;;;;;0.10;0.10;;;11.30;99.90;;;;;;5066477;28;20220;-78
2023/10/27 05:50:14;;;;;;;0.10;0.10;;;11.50;99.90;;;;;;5068642;28;20205;-79
2023/10/27 05:52:39;;;;;;;0.00;0.00;;;11.50;99.90;;;;;;5068056;28;20181;-79
2023/10/27 05:55:05;;;;;;;0.10;0.10;;;11.50;99.90;;;;;;5067453;28;20277;-79
2023/10/27 05:57:32;;;;;;;0.10;0.10;;;11.50;99.90;;;;;;5064538;28;20652;-79
2023/10/27 05:59:58;;;;;;;0.10;0.10;;;11.40;99.90;;;;;;5064957;28;20215;-78
2023/10/27 06:02:23;;;;;;;0.10;0.10;;;11.40;99.90;;;;;;5060868;28;20200;-78
2023/10/27 06:04:49;;;;;;;0.10;0.10;;;11.40;99.90;;;;;;5065264;28;20173;-79
2023/10/27 06:07:18;;;;;;;0.10;0.10;;;11.40;99.90;;;;;;5062871;28;20177;-80
2023/10/27 06:09:44;;;;;;;0.10;0.10;;;11.40;99.90;;;;;;5066844;28;20232;-79
2023/10/27 06:12:09;;;;;;;0.10;0.10;;;11.30;99.90;;;;;;5060500;28;20212;-79
2023/10/27 06:14:35;;;;;;;0.10;0.10;;;11.40;99.90;;;;;;5068458;28;20267;-79
2023/10/27 06:17:00;;;;;;;0.10;0.10;;;11.40;99.90;;;;;;5067053;28;20299;-79
2023/10/27 06:19:26;;;;;;;0.10;0.10;;;11.30;99.90;;;;;;5067756;28;20767;-79
2023/10/27 06:21:59;;;;;;;0.10;0.10;;;11.30;99.90;;;;;;5064061;28;20615;-79
2023/10/27 06:24:24;;;;;;;0.10;0.10;;;11.10;99.90;;;;;;5064027;28;20311;-79
2023/10/27 06:26:50;;;;;;;0.10;0.10;;;10.90;99.90;;;;;;5066678;28;20217;-79
2023/10/27 06:29:15;;;;;;;0.10;0.10;;;11.00;99.90;;;;;;5066264;28;20274;-79
2023/10/27 06:31:41;;;;;;;0.10;0.10;;;11.20;99.90;;;;;;5060140;28;20185;-79
2023/10/27 06:34:06;;;;;;;0.00;0.00;;;11.20;99.90;;;;;;5063543;28;20632;-79
2023/10/27 06:36:32;;;;;;;0.10;0.10;;;11.20;99.90;;;;;;5058922;28;20193;-79
2023/10/27 06:38:59;;;;;;;0.10;0.10;;;11.30;99.90;;;;;;5058877;28;20553;-79
2023/10/27 06:41:24;;;;;;;0.10;0.10;;;11.30;99.90;;;;;;5066432;28;20653;-79
2023/10/27 06:43:50;;;;;;;0.10;0.10;;;11.30;99.90;;;;;;5059313;28;20230;-78
2023/10/27 06:46:15;;;;;;;0.10;0.10;;;11.40;99.90;;;;;;5064547;28;20292;-78
2023/10/27 06:48:41;;;;;;;0.00;0.00;;;11.50;99.90;;;;;;5061709;28;20299;-78
2023/10/27 06:51:08;;;;;;;0.10;0.10;;;11.40;99.90;;;;;;5062061;28;20638;-78
2023/10/27 06:53:33;;;;;;;0.10;0.10;;;11.60;99.90;;;;;;5062192;28;20224;-78
2023/10/27 06:55:59;;;;;;;0.07;0.07;;;11.60;99.90;;;;;;5066561;28;20216;-77
2023/10/27 06:58:24;;;;;;;0.10;0.10;;;11.70;99.90;;;;;;5065975;28;20200;-79
2023/10/27 07:00:50;;;;;;;0.00;0.00;;;11.70;99.90;;;;;;5061019;28;20300;-78
2023/10/27 07:03:15;;;;;;;0.10;0.10;;;11.70;99.90;;;;;;5068475;28;20246;-79
2023/10/27 07:05:41;;;;;;;0.10;0.10;;;11.80;99.90;;;;;;5063334;28;20181;-78
2023/10/27 07:08:06;;;;;;;0.10;0.10;;;11.90;99.90;;;;;;5069257;28;20178;-79
2023/10/27 07:10:32;;;;;;;0.10;0.10;;;11.90;99.90;;;;;;5060737;28;20625;-78
2023/10/27 07:12:58;;;;;;;0.10;0.10;;;11.80;99.90;;;;;;5065925;28;20187;-78
2023/10/27 07:15:23;;;;;;;0.00;0.00;;;11.90;99.90;;;;;;5069201;28;20204;-78
2023/10/27 07:17:49;;;;;;;0.00;0.00;;;11.80;99.90;;;;;;5060342;28;20184;-78
2023/10/27 07:20:14;;;;;;;0.10;0.10;;;11.90;99.90;;;;;;5070049;28;20224;-78
2023/10/27 07:22:40;;;;;;;0.10;0.10;;;12.00;99.90;;;;;;5067034;28;20289;-78
2023/10/27 07:25:06;;;;;;;0.10;0.10;;;12.10;99.90;;;;;;5069418;28;20175;-78
2023/10/27 07:27:33;;;;;;;0.10;0.10;;;12.10;99.90;;;;;;5068353;28;20185;-77
2023/10/27 07:29:59;;;;;;;0.10;0.10;;;12.20;99.90;;;;;;5067786;28;20201;-79
2023/10/27 07:32:25;;;;;;;0.10;0.10;;;12.20;99.90;;;;;;5064121;28;20240;-78
2023/10/27 07:34:50;;;;;;;0.10;0.10;;;12.30;99.90;;;;;;5085924;28;20176;-78
2023/10/27 07:37:18;;;;;;;0.00;0.00;;;12.30;99.90;;;;;;5070230;28;20231;-78
2023/10/27 07:39:44;;;;;;;0.10;0.10;;;12.30;99.90;;;;;;5067875;28;20294;-78
2023/10/27 07:42:09;;;;;;;0.10;0.10;;;12.30;99.90;;;;;;5065086;28;20696;-78
2023/10/27 07:44:35;;;;;;;0.10;0.10;;;12.30;99.90;;;;;;5061923;28;20182;-79
2023/10/27 07:47:00;;;;;;;0.10;0.10;;;12.20;99.90;;;;;;5067106;28;20188;-79
2023/10/27 07:49:26;;;;;;;0.10;0.10;;;12.30;99.90;;;;;;5064664;28;20205;-79
2023/10/27 07:51:51;;;;;;;0.10;0.10;;;12.20;99.90;;;;;;5062708;28;20189;-79
2023/10/27 07:54:17;;;;;;;0.10;0.10;;;12.30;99.90;;;;;;5063568;28;20186;-80
2023/10/27 07:56:43;;;;;;;0.10;0.10;;;12.30;99.90;;;;;;5058555;28;20187;-79
2023/10/27 07:59:08;;;;;;;0.10;0.10;;;12.30;99.90;;;;;;5065673;28;20230;-78
2023/10/27 08:01:34;;;;;;;0.10;0.10;;;12.40;99.90;;;;;;5068134;28;20213;-79
2023/10/27 08:04:02;;;;;;;0.10;0.10;;;12.40;99.90;;;;;;5069734;28;20174;-79
2023/10/27 08:06:28;;;;;;;0.10;0.10;;;12.40;99.90;;;;;;5066771;28;21140;-79
2023/10/27 08:08:54;;;;;;;0.10;0.10;;;12.50;99.90;;;;;;5067589;28;20315;-78
2023/10/27 08:11:19;;;;;;;0.10;0.10;;;12.40;99.90;;;;;;5060018;28;20300;-77
2023/10/27 08:13:45;;;;;;;0.07;0.07;;;12.40;99.90;;;;;;5068192;28;20185;-78
2023/10/27 08:16:10;;;;;;;0.10;0.10;;;12.40;99.90;;;;;;5067892;28;20232;-78
2023/10/27 08:18:36;;;;;;;0.10;0.10;;;12.40;99.90;;;;;;5061150;28;20204;-78
2023/10/27 08:21:02;;;;;;;0.10;0.10;;;12.40;99.90;;;;;;5061679;28;20213;-78
2023/10/27 08:23:28;;;;;;;0.00;0.00;;;12.30;99.90;;;;;;5067353;28;20200;-79
2023/10/27 08:25:53;;;;;;;0.10;0.10;;;12.30;99.90;;;;;;5061714;28;20558;-79
2023/10/27 08:28:19;;;;;;;0.10;0.10;;;12.30;99.90;;;;;;5066726;28;20189;-79
2023/10/27 08:30:45;;;;;;;0.10;0.10;;;12.30;99.90;;;;;;5066330;28;20207;-78
2023/10/27 08:33:11;;;;;;;0.10;0.10;;;12.20;99.90;;;;;;5069126;28;20504;-79
2023/10/27 08:35:36;;;;;;;0.00;0.00;;;12.20;99.90;;;;;;5068098;28;20185;-79
2023/10/27 08:38:02;;;;;;;0.10;0.10;;;12.20;99.90;;;;;;5063742;28;20193;-79
2023/10/27 08:40:28;;;;;;;0.10;0.10;;;12.20;99.90;;;;;;5066963;28;20578;-79
2023/10/27 08:42:54;;;;;;;0.10;0.10;;;12.10;99.90;;;;;;5064451;28;20197;-78
2023/10/27 08:45:21;;;;;;;0.00;0.00;;;12.10;99.90;;;;;;5067236;28;20181;-79
2023/10/27 08:47:47;;;;;;;0.10;0.10;;;12.10;99.90;;;;;;5067923;28;20661;-79
2023/10/27 08:50:13;;;;;;;0.00;0.00;;;12.10;99.90;;;;;;5068938;28;20200;-79
2023/10/27 08:52:39;;;;;;;0.10;0.10;;;12.10;99.90;;;;;;5063647;28;20664;-79
2023/10/27 08:55:10;;;;;;;0.07;0.07;;;12.10;99.90;;;;;;5063124;28;20193;-79
2023/10/27 08:57:37;;;;;;;0.00;0.00;;;12.10;99.90;;;;;;5066428;28;20269;-78
2023/10/27 09:00:06;;;;;;;0.07;0.07;;;12.20;99.90;;;;;;5060974;28;20212;-79
2023/10/27 09:02:32;;;;;;;0.03;0.03;;;12.20;99.90;;;;;;5064754;28;20216;-78
2023/10/27 09:05:06;;;;;;;0.00;0.00;;;12.20;99.90;;;;;;5067684;28;20173;-79
2023/10/27 09:07:33;;;;;;;0.10;0.10;;;12.30;99.90;;;;;;5065788;28;20185;-79
2023/10/27 09:10:00;;;;;;;0.10;0.10;;;12.30;99.90;;;;;;5064292;28;20204;-78
2023/10/27 09:12:28;;;;;;;0.10;0.10;;;12.30;99.90;;;;;;5066875;28;20201;-79
2023/10/27 09:15:07;;;;;;;0.10;0.10;;;12.20;99.90;;;;;;5065618;28;20193;-78
2023/10/27 09:17:56;;;;;;;0.10;0.10;;;12.30;99.90;;;;;;5067169;28;20180;-78
2023/10/27 09:20:23;;;;;;;0.10;0.10;;;12.30;99.90;;;;;;5066015;28;20204;-79
2023/10/27 09:23:09;;;;;;;0.07;0.07;;;12.30;99.90;;;;;;5065586;28;20201;-78
2023/10/27 09:25:35;;;;;;;0.07;0.07;;;12.30;99.90;;;;;;5066402;28;20668;-78
2023/10/27 09:28:08;;;;;;;0.00;0.00;;;12.20;99.90;;;;;;5063259;28;20234;-79
2023/10/27 09:30:38;;;;;;;0.10;0.10;;;12.10;99.90;;;;;;5067914;28;20209;-79
2023/10/27 09:33:16;;;;;;;0.00;0.00;;;12.20;99.90;;;;;;5062237;28;20181;-79
2023/10/27 09:35:43;;;;;;;0.00;0.00;;;12.10;99.90;;;;;;5066672;28;20191;-79
2023/10/27 09:38:09;;;;;;;0.07;0.07;;;12.20;99.90;;;;;;5068330;28;20188;-79
2023/10/27 09:40:37;;;;;;;0.00;0.00;;;12.20;99.90;;;;;;5067476;28;20232;-79
2023/10/27 09:43:06;;;;;;;0.10;0.10;;;12.40;99.90;;;;;;5066578;28;20211;-79
2023/10/27 09:45:34;;;;;;;0.10;0.10;;;12.50;99.90;;;;;;5066997;28;20561;-79
2023/10/27 09:48:04;;;;;;;0.00;0.00;;;12.50;99.90;;;;;;5068610;28;20184;-79
2023/10/27 09:50:30;;;;;;;0.00;0.00;;;12.60;99.90;;;;;;5060691;28;20584;-78
2023/10/27 09:52:59;;;;;;;0.10;0.10;;;12.80;99.90;;;;;;5069217;28;20212;-78
2023/10/27 09:55:24;;;;;;;0.10;0.10;;;13.00;99.90;;;;;;5067751;28;20186;-79
2023/10/27 09:57:51;;;;;;;0.10;0.10;;;13.30;99.90;;;;;;5062850;28;20190;-79
2023/10/27 10:00:20;;;;;;;0.10;0.10;;;13.50;99.90;;;;;;5060891;28;20258;-78
2023/10/27 10:02:47;;;;;;;0.10;0.10;;;13.70;99.90;;;;;;5059776;28;20209;-78
2023/10/27 10:05:12;;;;;;;0.10;0.10;;;13.90;99.90;;;;;;5067444;28;20224;-78
2023/10/27 10:07:47;;;;;;;0.10;0.10;;;14.10;99.90;;;;;;5061920;28;20210;-79
2023/10/27 10:10:17;;;;;;;0.10;0.10;;;14.20;99.90;;;;;;5067359;28;20203;-78
2023/10/27 10:13:03;;;;;;;0.10;0.10;;;14.30;99.90;;;;;;5058869;28;20210;-79
2023/10/27 10:15:34;;;;;;;0.10;0.10;;;14.30;99.90;;;;;;5067346;28;20192;-79
2023/10/27 10:18:01;;;;;;;0.10;0.10;;;14.50;99.90;;;;;;5068738;28;20205;-79
2023/10/27 10:20:42;;;;;;;0.10;0.10;;;14.50;99.90;;;;;;5058768;28;20327;-79
2023/10/27 10:23:11;;;;;;;0.10;0.10;;;14.40;99.90;;;;;;5067904;28;20202;-79
2023/10/27 10:25:48;;;;;;;0.00;0.00;;;14.20;99.90;;;;;;5061422;28;20192;-79
2023/10/27 10:28:13;;;;;;;0.00;0.00;;;14.00;99.90;;;;;;5066843;28;20248;-79
2023/10/27 10:30:43;;;;;;;0.10;0.10;;;13.90;99.90;;;;;;5062093;28;20215;-79
2023/10/27 10:33:22;;;;;;;0.10;0.10;;;13.90;99.90;;;;;;5077139;28;20215;-79
2023/10/27 10:35:51;;;;;;;0.10;0.10;;;13.80;99.90;;;;;;5082391;28;20193;-79
2023/10/27 10:38:21;;;;;;;0.10;0.10;;;13.80;99.90;;;;;;5081901;28;20189;-79
2023/10/27 10:40:55;;;;;;;0.03;0.03;;;13.90;99.90;;;;;;5066108;28;20564;-79
2023/10/27 10:43:23;;;;;;;0.10;0.10;;;14.00;99.90;;;;;;5073891;28;21685;-79
2023/10/27 10:45:56;;;;;;;0.00;0.00;;;14.10;99.90;;;;;;5073947;28;20175;-79
2023/10/27 10:48:27;;;;;;;0.10;0.10;;;14.30;99.90;;;;;;5073207;28;20644;-79
2023/10/27 10:50:55;;;;;;;0.10;0.10;;;14.40;99.90;;;;;;5073585;28;20209;-79
2023/10/27 10:53:24;;;;;;;0.10;0.10;;;14.20;99.90;;;;;;5071876;28;20189;-79
2023/10/27 10:55:50;;;;;;;0.00;0.00;;;13.90;99.90;;;;;;5072764;28;20184;-79
2023/10/27 10:58:23;;;;;;;0.00;0.00;;;13.90;99.90;;;;;;5069461;28;20179;-79
2023/10/27 11:00:49;;;;;;;0.10;0.10;;;13.90;99.90;;;;;;5065762;28;20204;-79
2023/10/27 11:03:15;;;;;;;0.10;0.10;;;14.30;99.90;;;;;;5066971;28;20210;-79
2023/10/27 11:05:41;;;;;;;0.10;0.10;;;14.40;99.90;;;;;;5070732;28;20190;-79
2023/10/27 11:08:07;;;;;;;0.10;0.10;;;14.40;99.90;;;;;;5072804;28;20205;-78
2023/10/27 11:10:34;;;;;;;0.10;0.10;;;14.40;99.90;;;;;;5064318;28;20307;-79
2023/10/27 11:13:09;;;;;;;0.10;0.10;;;14.40;99.90;;;;;;5062220;28;20521;-79
2023/10/27 11:15:48;;;;;;;0.10;0.10;;;14.30;99.90;;;;;;5067701;28;20185;-79
2023/10/27 11:18:15;;;;;;;0.10;0.10;;;14.30;99.90;;;;;;5070373;28;20675;-79
2023/10/27 11:20:45;;;;;;;0.10;0.10;;;14.80;99.90;;;;;;5071881;28;20247;-79
2023/10/27 11:23:15;;;;;;;0.10;0.10;;;15.10;99.90;;;;;;5071268;28;20192;-79
2023/10/27 11:25:41;;;;;;;0.10;0.10;;;15.20;99.90;;;;;;5071865;28;20184;-79
2023/10/27 11:28:27;;;;;;;0.10;0.10;;;15.40;99.90;;;;;;5071002;28;20180;-79
2023/10/27 11:31:23;;;;;;;0.10;0.10;;;15.60;99.90;;;;;;5069293;28;20827;-79
2023/10/27 11:33:56;;;;;;;0.10;0.10;;;15.90;99.90;;;;;;5071761;28;20204;-79
2023/10/27 11:36:22;;;;;;;0.10;0.10;;;15.90;99.90;;;;;;5071522;28;20266;-79
2023/10/27 11:38:48;;;;;;;0.10;0.10;;;16.00;99.90;;;;;;5072256;28;20337;-78
2023/10/27 11:41:13;;;;;;;0.10;0.10;;;16.20;99.90;;;;;;5061809;28;20254;-79
2023/10/27 11:43:40;;;;;;;0.10;0.10;;;16.00;99.90;;;;;;5071283;28;20380;-79
2023/10/27 11:46:17;;;;;;;0.10;0.10;;;16.10;99.90;;;;;;5071247;28;20187;-79
2023/10/27 11:48:43;;;;;;;0.10;0.10;;;15.80;99.90;;;;;;5071033;28;20195;-79
2023/10/27 11:51:10;;;;;;;0.10;0.10;;;16.00;99.90;;;;;;5071063;28;20208;-79
2023/10/27 11:53:43;;;;;;;0.10;0.10;;;16.30;99.90;;;;;;5067736;28;20216;-79
2023/10/27 11:56:09;;;;;;;0.10;0.10;;;16.50;99.90;;;;;;5069874;28;20169;-79
2023/10/27 11:58:35;;;;;;;0.10;0.10;;;16.90;99.90;;;;;;5071521;28;20177;-78
2023/10/27 12:01:01;;;;;;;0.10;0.10;;;17.10;99.90;;;;;;5070848;28;20209;-79
2023/10/27 12:03:26;;;;;;;0.10;0.10;;;17.20;99.90;;;;;;5062757;28;20272;-79
2023/10/27 12:05:52;;;;;;;0.10;0.10;;;17.00;99.90;;;;;;5069521;28;20211;-79
2023/10/27 12:08:17;;;;;;;0.10;0.10;;;16.90;99.90;;;;;;5068899;28;20243;-79
2023/10/27 12:10:43;;;;;;;0.10;0.10;;;16.80;99.90;;;;;;5069967;28;20219;-78
2023/10/27 12:13:09;;;;;;;0.10;0.10;;;16.70;99.90;;;;;;5071100;28;20184;-78
2023/10/27 12:15:37;;;;;;;0.10;0.10;;;16.60;99.90;;;;;;5071130;28;20192;-78
2023/10/27 12:18:03;;;;;;;0.10;0.10;;;16.50;99.90;;;;;;5064558;28;20200;-78
2023/10/27 12:20:30;;;;;;;0.10;0.10;;;16.20;99.90;;;;;;5063594;28;20223;-78
2023/10/27 12:22:55;;;;;;;0.10;0.10;;;16.30;99.90;;;;;;5070387;28;20254;-79
2023/10/27 12:25:21;;;;;;;0.10;0.10;;;15.90;99.90;;;;;;5065550;28;20185;-79
2023/10/27 12:27:46;;;;;;;0.10;0.10;;;15.60;99.90;;;;;;5069132;28;21144;-78
2023/10/27 12:30:14;;;;;;;0.10;0.10;;;15.70;99.90;;;;;;5070103;28;20200;-79
2023/10/27 12:32:40;;;;;;;0.10;0.10;;;15.50;99.90;;;;;;5063002;28;20179;-79
2023/10/27 12:35:06;;;;;;;0.10;0.10;;;15.50;99.90;;;;;;5067942;28;20189;-79
2023/10/27 12:37:32;;;;;;;0.10;0.10;;;15.50;99.90;;;;;;5065679;28;20219;-79
2023/10/27 12:39:58;;;;;;;0.10;0.10;;;15.40;99.90;;;;;;5069641;28;20201;-78
2023/10/27 12:42:23;;;;;;;0.10;0.10;;;15.30;99.90;;;;;;5070553;28;20566;-78
2023/10/27 12:44:50;;;;;;;0.10;0.10;;;15.30;99.90;;;;;;5062226;28;20660;-79